sensor_id;sensor_type;location;lat;lon;timestamp;temperature;humidity
67868;SHT31;54672;46.096;14.470;2023-03-01T00:00:12;2.09;81.03
67868;SHT31;54672;46.096;14.470;2023-03-01T00:02:38;2.05;81.51
67868;SHT31;54672;46.096;14.470;2023-03-01T00:05:04;2.06;81.92
67868;SHT31;54672;46.096;14.470;2023-03-01T00:07:29;2.05;81.87
67868;SHT31;54672;46.096;14.470;2023-03-01T00:09:55;2.05;81.68
67868;SHT31;54672;46.096;14.470;2023-03-01T00:12:20;2.08;81.72
67868;SHT31;54672;46.096;14.470;2023-03-01T00:14:46;2.05;81.67
67868;SHT31;54672;46.096;14.470;2023-03-01T00:17:11;2.05;81.56
67868;SHT31;54672;46.096;14.470;2023-03-01T00:19:37;1.98;81.60
67868;SHT31;54672;46.096;14.470;2023-03-01T00:22:02;1.92;82.20
67868;SHT31;54672;46.096;14.470;2023-03-01T00:24:28;1.95;82.29
67868;SHT31;54672;46.096;14.470;2023-03-01T00:26:54;1.92;82.09
67868;SHT31;54672;46.096;14.470;2023-03-01T00:29:24;2.01;82.22
67868;SHT31;54672;46.096;14.470;2023-03-01T00:31:50;2.01;82.37
67868;SHT31;54672;46.096;14.470;2023-03-01T00:34:15;2.03;82.30
67868;SHT31;54672;46.096;14.470;2023-03-01T00:36:41;2.01;82.19
67868;SHT31;54672;46.096;14.470;2023-03-01T00:39:11;1.77;80.80
67868;SHT31;54672;46.096;14.470;2023-03-01T00:41:37;1.75;82.03
67868;SHT31;54672;46.096;14.470;2023-03-01T00:44:02;1.88;82.31
67868;SHT31;54672;46.096;14.470;2023-03-01T00:46:28;1.91;82.85
67868;SHT31;54672;46.096;14.470;2023-03-01T00:48:55;1.97;83.10
67868;SHT31;54672;46.096;14.470;2023-03-01T00:51:23;2.02;83.00
67868;SHT31;54672;46.096;14.470;2023-03-01T00:53:54;2.02;82.82
67868;SHT31;54672;46.096;14.470;2023-03-01T00:56:20;1.97;83.07
67868;SHT31;54672;46.096;14.470;2023-03-01T00:58:46;1.98;82.88
67868;SHT31;54672;46.096;14.470;2023-03-01T01:01:17;1.95;82.83
67868;SHT31;54672;46.096;14.470;2023-03-01T01:04:02;1.88;82.70
67868;SHT31;54672;46.096;14.470;2023-03-01T01:06:39;1.89;82.85
67868;SHT31;54672;46.096;14.470;2023-03-01T01:09:08;1.95;82.78
67868;SHT31;54672;46.096;14.470;2023-03-01T01:11:35;1.97;82.91
67868;SHT31;54672;46.096;14.470;2023-03-01T01:14:02;1.99;82.64
67868;SHT31;54672;46.096;14.470;2023-03-01T01:16:28;1.97;82.38
67868;SHT31;54672;46.096;14.470;2023-03-01T01:18:56;1.86;82.69
67868;SHT31;54672;46.096;14.470;2023-03-01T01:21:23;1.79;82.85
67868;SHT31;54672;46.096;14.470;2023-03-01T01:23:49;1.84;82.86
67868;SHT31;54672;46.096;14.470;2023-03-01T01:26:23;1.86;82.78
67868;SHT31;54672;46.096;14.470;2023-03-01T01:28:49;1.86;82.57
67868;SHT31;54672;46.096;14.470;2023-03-01T01:31:16;1.89;82.36
67868;SHT31;54672;46.096;14.470;2023-03-01T01:33:41;1.94;82.46
67868;SHT31;54672;46.096;14.470;2023-03-01T01:36:08;1.97;82.54
67868;SHT31;54672;46.096;14.470;2023-03-01T01:38:34;1.94;82.74
67868;SHT31;54672;46.096;14.470;2023-03-01T01:41:00;1.89;82.99
67868;SHT31;54672;46.096;14.470;2023-03-01T01:43:28;1.78;82.97
67868;SHT31;54672;46.096;14.470;2023-03-01T01:46:02;1.85;82.72
67868;SHT31;54672;46.096;14.470;2023-03-01T01:48:38;1.82;82.66
67868;SHT31;54672;46.096;14.470;2023-03-01T01:51:13;1.84;82.86
67868;SHT31;54672;46.096;14.470;2023-03-01T01:53:40;1.86;82.71
67868;SHT31;54672;46.096;14.470;2023-03-01T01:56:08;1.82;82.61
67868;SHT31;54672;46.096;14.470;2023-03-01T01:58:36;1.84;82.84
67868;SHT31;54672;46.096;14.470;2023-03-01T02:01:03;1.85;82.41
67868;SHT31;54672;46.096;14.470;2023-03-01T02:03:31;1.85;82.47
67868;SHT31;54672;46.096;14.470;2023-03-01T02:08:52;1.86;82.86
67868;SHT31;54672;46.096;14.470;2023-03-01T02:11:18;1.89;82.93
67868;SHT31;54672;46.096;14.470;2023-03-01T02:13:44;1.98;81.74
67868;SHT31;54672;46.096;14.470;2023-03-01T02:16:13;1.92;82.12
67868;SHT31;54672;46.096;14.470;2023-03-01T02:18:40;1.82;83.10
67868;SHT31;54672;46.096;14.470;2023-03-01T02:23:49;1.82;82.64
67868;SHT31;54672;46.096;14.470;2023-03-01T02:26:23;1.84;82.80
67868;SHT31;54672;46.096;14.470;2023-03-01T02:28:54;1.84;83.17
67868;SHT31;54672;46.096;14.470;2023-03-01T02:31:21;1.85;83.08
67868;SHT31;54672;46.096;14.470;2023-03-01T02:34:07;1.86;83.04
67868;SHT31;54672;46.096;14.470;2023-03-01T02:37:30;1.88;83.20
67868;SHT31;54672;46.096;14.470;2023-03-01T02:39:35;1.84;83.18
67868;SHT31;54672;46.096;14.470;2023-03-01T02:42:11;1.81;83.42
67868;SHT31;54672;46.096;14.470;2023-03-01T02:44:38;1.84;83.32
67868;SHT31;54672;46.096;14.470;2023-03-01T02:47:04;1.85;83.26
67868;SHT31;54672;46.096;14.470;2023-03-01T02:49:35;1.89;82.82
67868;SHT31;54672;46.096;14.470;2023-03-01T02:54:31;1.82;82.76
67868;SHT31;54672;46.096;14.470;2023-03-01T02:57:00;1.84;83.12
67868;SHT31;54672;46.096;14.470;2023-03-01T02:59:30;1.78;82.97
67868;SHT31;54672;46.096;14.470;2023-03-01T03:01:56;1.78;83.18
67868;SHT31;54672;46.096;14.470;2023-03-01T03:04:22;1.75;83.48
67868;SHT31;54672;46.096;14.470;2023-03-01T03:06:49;1.70;83.49
67868;SHT31;54672;46.096;14.470;2023-03-01T03:09:15;1.70;83.88
67868;SHT31;54672;46.096;14.470;2023-03-01T03:11:41;1.67;84.34
67868;SHT31;54672;46.096;14.470;2023-03-01T03:14:12;1.62;84.60
67868;SHT31;54672;46.096;14.470;2023-03-01T03:16:42;1.64;84.77
67868;SHT31;54672;46.096;14.470;2023-03-01T03:19:08;1.53;84.92
67868;SHT31;54672;46.096;14.470;2023-03-01T03:21:34;1.53;85.17
67868;SHT31;54672;46.096;14.470;2023-03-01T03:24:00;1.46;85.38
67868;SHT31;54672;46.096;14.470;2023-03-01T03:26:25;1.48;85.38
67868;SHT31;54672;46.096;14.470;2023-03-01T03:28:51;1.51;85.52
67868;SHT31;54672;46.096;14.470;2023-03-01T03:31:16;1.50;85.68
67868;SHT31;54672;46.096;14.470;2023-03-01T03:33:42;1.55;85.51
67868;SHT31;54672;46.096;14.470;2023-03-01T03:36:07;1.53;85.48
67868;SHT31;54672;46.096;14.470;2023-03-01T03:38:38;1.50;85.26
67868;SHT31;54672;46.096;14.470;2023-03-01T03:41:07;1.51;85.36
67868;SHT31;54672;46.096;14.470;2023-03-01T03:43:35;1.46;85.59
67868;SHT31;54672;46.096;14.470;2023-03-01T03:46:02;1.44;85.33
67868;SHT31;54672;46.096;14.470;2023-03-01T03:48:35;1.44;85.40
67868;SHT31;54672;46.096;14.470;2023-03-01T03:51:01;1.47;85.53
67868;SHT31;54672;46.096;14.470;2023-03-01T03:53:28;1.44;85.43
67868;SHT31;54672;46.096;14.470;2023-03-01T03:55:54;1.44;85.61
67868;SHT31;54672;46.096;14.470;2023-03-01T03:58:21;1.44;85.26
67868;SHT31;54672;46.096;14.470;2023-03-01T04:00:49;1.43;85.24
67868;SHT31;54672;46.096;14.470;2023-03-01T04:03:16;1.44;85.34
67868;SHT31;54672;46.096;14.470;2023-03-01T04:05:42;1.43;85.65
67868;SHT31;54672;46.096;14.470;2023-03-01T04:08:08;1.44;85.87
67868;SHT31;54672;46.096;14.470;2023-03-01T04:10:42;1.41;86.08
67868;SHT31;54672;46.096;14.470;2023-03-01T04:13:13;1.39;86.65
67868;SHT31;54672;46.096;14.470;2023-03-01T04:15:39;1.34;87.10
67868;SHT31;54672;46.096;14.470;2023-03-01T04:18:05;1.34;87.41
67868;SHT31;54672;46.096;14.470;2023-03-01T04:20:33;1.30;87.97
67868;SHT31;54672;46.096;14.470;2023-03-01T04:25:46;1.24;88.51
67868;SHT31;54672;46.096;14.470;2023-03-01T04:28:19;1.23;88.54
67868;SHT31;54672;46.096;14.470;2023-03-01T04:30:45;1.27;88.65
67868;SHT31;54672;46.096;14.470;2023-03-01T04:33:11;1.26;88.56
67868;SHT31;54672;46.096;14.470;2023-03-01T04:35:37;1.24;88.87
67868;SHT31;54672;46.096;14.470;2023-03-01T04:38:05;1.17;88.89
67868;SHT31;54672;46.096;14.470;2023-03-01T04:40:31;1.17;89.03
67868;SHT31;54672;46.096;14.470;2023-03-01T04:42:56;1.17;89.17
67868;SHT31;54672;46.096;14.470;2023-03-01T04:45:22;1.16;89.31
67868;SHT31;54672;46.096;14.470;2023-03-01T04:47:47;1.17;89.68
67868;SHT31;54672;46.096;14.470;2023-03-01T04:50:16;1.19;89.44
67868;SHT31;54672;46.096;14.470;2023-03-01T04:52:43;1.15;89.65
67868;SHT31;54672;46.096;14.470;2023-03-01T04:55:09;1.13;89.88
67868;SHT31;54672;46.096;14.470;2023-03-01T04:57:34;1.15;89.96
67868;SHT31;54672;46.096;14.470;2023-03-01T05:00:00;1.10;90.06
67868;SHT31;54672;46.096;14.470;2023-03-01T05:02:26;1.12;90.17
67868;SHT31;54672;46.096;14.470;2023-03-01T05:04:51;1.07;90.46
67868;SHT31;54672;46.096;14.470;2023-03-01T05:07:17;1.07;90.43
67868;SHT31;54672;46.096;14.470;2023-03-01T05:09:48;1.12;90.33
67868;SHT31;54672;46.096;14.470;2023-03-01T05:12:14;1.12;90.33
67868;SHT31;54672;46.096;14.470;2023-03-01T05:14:40;1.13;90.59
67868;SHT31;54672;46.096;14.470;2023-03-01T05:17:07;1.07;90.69
67868;SHT31;54672;46.096;14.470;2023-03-01T05:19:33;1.06;90.78
67868;SHT31;54672;46.096;14.470;2023-03-01T05:21:59;1.10;90.88
67868;SHT31;54672;46.096;14.470;2023-03-01T05:24:28;1.10;90.72
67868;SHT31;54672;46.096;14.470;2023-03-01T05:26:54;1.10;90.80
67868;SHT31;54672;46.096;14.470;2023-03-01T05:29:21;1.06;90.81
67868;SHT31;54672;46.096;14.470;2023-03-01T05:32:00;1.10;90.91
67868;SHT31;54672;46.096;14.470;2023-03-01T05:34:35;1.12;90.78
67868;SHT31;54672;46.096;14.470;2023-03-01T05:37:01;1.12;90.83
67868;SHT31;54672;46.096;14.470;2023-03-01T05:39:27;1.15;91.03
67868;SHT31;54672;46.096;14.470;2023-03-01T05:41:54;1.06;91.45
67868;SHT31;54672;46.096;14.470;2023-03-01T05:44:20;1.02;91.39
67868;SHT31;54672;46.096;14.470;2023-03-01T05:46:46;1.06;91.53
67868;SHT31;54672;46.096;14.470;2023-03-01T05:49:12;1.06;91.33
67868;SHT31;54672;46.096;14.470;2023-03-01T05:51:39;1.02;91.47
67868;SHT31;54672;46.096;14.470;2023-03-01T05:54:04;1.04;91.58
67868;SHT31;54672;46.096;14.470;2023-03-01T05:56:33;1.06;91.59
67868;SHT31;54672;46.096;14.470;2023-03-01T05:58:59;1.12;91.59
67868;SHT31;54672;46.096;14.470;2023-03-01T06:01:24;1.12;91.58
67868;SHT31;54672;46.096;14.470;2023-03-01T06:03:50;1.13;91.52
67868;SHT31;54672;46.096;14.470;2023-03-01T06:06:15;1.10;91.24
67868;SHT31;54672;46.096;14.470;2023-03-01T06:08:40;1.07;91.29
67868;SHT31;54672;46.096;14.470;2023-03-01T06:11:06;1.09;91.65
67868;SHT31;54672;46.096;14.470;2023-03-01T06:13:32;1.10;91.40
67868;SHT31;54672;46.096;14.470;2023-03-01T06:15:58;1.12;91.66
67868;SHT31;54672;46.096;14.470;2023-03-01T06:18:23;1.15;91.23
67868;SHT31;54672;46.096;14.470;2023-03-01T06:20:55;1.15;91.42
67868;SHT31;54672;46.096;14.470;2023-03-01T06:23:21;1.04;91.80
67868;SHT31;54672;46.096;14.470;2023-03-01T06:25:47;0.99;92.64
67868;SHT31;54672;46.096;14.470;2023-03-01T06:28:12;1.04;92.46
67868;SHT31;54672;46.096;14.470;2023-03-01T06:30:37;1.12;91.94
67868;SHT31;54672;46.096;14.470;2023-03-01T06:33:03;1.06;92.28
67868;SHT31;54672;46.096;14.470;2023-03-01T06:35:29;1.03;92.49
67868;SHT31;54672;46.096;14.470;2023-03-01T06:37:55;1.12;92.33
67868;SHT31;54672;46.096;14.470;2023-03-01T06:40:21;1.20;91.29
67868;SHT31;54672;46.096;14.470;2023-03-01T06:42:49;1.20;90.20
67868;SHT31;54672;46.096;14.470;2023-03-01T06:45:15;1.23;89.82
67868;SHT31;54672;46.096;14.470;2023-03-01T06:47:41;1.19;89.68
67868;SHT31;54672;46.096;14.470;2023-03-01T06:50:06;1.22;89.55
67868;SHT31;54672;46.096;14.470;2023-03-01T06:52:32;1.23;89.28
67868;SHT31;54672;46.096;14.470;2023-03-01T06:54:57;1.30;88.98
67868;SHT31;54672;46.096;14.470;2023-03-01T06:57:23;1.27;89.34
67868;SHT31;54672;46.096;14.470;2023-03-01T06:59:48;1.22;89.31
67868;SHT31;54672;46.096;14.470;2023-03-01T07:02:14;1.23;89.67
67868;SHT31;54672;46.096;14.470;2023-03-01T07:04:40;1.29;89.48
67868;SHT31;54672;46.096;14.470;2023-03-01T07:07:06;1.37;89.06
67868;SHT31;54672;46.096;14.470;2023-03-01T07:09:31;1.40;89.07
67868;SHT31;54672;46.096;14.470;2023-03-01T07:11:57;1.30;89.41
67868;SHT31;54672;46.096;14.470;2023-03-01T07:14:23;1.29;89.87
67868;SHT31;54672;46.096;14.470;2023-03-01T07:16:50;1.29;89.45
67868;SHT31;54672;46.096;14.470;2023-03-01T07:19:16;1.30;89.77
67868;SHT31;54672;46.096;14.470;2023-03-01T07:21:41;1.41;89.23
67868;SHT31;54672;46.096;14.470;2023-03-01T07:24:07;1.33;89.43
67868;SHT31;54672;46.096;14.470;2023-03-01T07:26:33;1.30;89.53
67868;SHT31;54672;46.096;14.470;2023-03-01T07:29:00;1.03;91.02
67868;SHT31;54672;46.096;14.470;2023-03-01T07:31:25;1.03;92.14
67868;SHT31;54672;46.096;14.470;2023-03-01T07:33:53;1.16;90.99
67868;SHT31;54672;46.096;14.470;2023-03-01T07:36:19;0.99;91.30
67868;SHT31;54672;46.096;14.470;2023-03-01T07:38:44;1.16;91.09
67868;SHT31;54672;46.096;14.470;2023-03-01T07:41:10;0.99;91.40
67868;SHT31;54672;46.096;14.470;2023-03-01T07:43:35;1.22;91.17
67868;SHT31;54672;46.096;14.470;2023-03-01T07:46:01;1.20;89.82
67868;SHT31;54672;46.096;14.470;2023-03-01T07:48:28;1.19;89.57
67868;SHT31;54672;46.096;14.470;2023-03-01T07:50:54;1.19;89.31
67868;SHT31;54672;46.096;14.470;2023-03-01T07:53:19;1.17;90.06
67868;SHT31;54672;46.096;14.470;2023-03-01T07:55:44;1.41;89.71
67868;SHT31;54672;46.096;14.470;2023-03-01T07:58:10;1.41;89.18
67868;SHT31;54672;46.096;14.470;2023-03-01T08:00:35;1.30;90.18
67868;SHT31;54672;46.096;14.470;2023-03-01T08:03:01;1.39;91.46
67868;SHT31;54672;46.096;14.470;2023-03-01T08:05:28;1.53;91.67
67868;SHT31;54672;46.096;14.470;2023-03-01T08:07:54;1.29;91.64
67868;SHT31;54672;46.096;14.470;2023-03-01T08:10:20;1.06;92.39
67868;SHT31;54672;46.096;14.470;2023-03-01T08:12:45;1.13;92.62
67868;SHT31;54672;46.096;14.470;2023-03-01T08:15:11;1.46;92.28
67868;SHT31;54672;46.096;14.470;2023-03-01T08:17:37;1.70;90.98
67868;SHT31;54672;46.096;14.470;2023-03-01T08:20:03;1.54;90.39
67868;SHT31;54672;46.096;14.470;2023-03-01T08:22:32;1.82;90.16
67868;SHT31;54672;46.096;14.470;2023-03-01T08:24:57;1.91;89.51
67868;SHT31;54672;46.096;14.470;2023-03-01T08:27:23;2.02;88.53
67868;SHT31;54672;46.096;14.470;2023-03-01T08:29:48;2.01;88.48
67868;SHT31;54672;46.096;14.470;2023-03-01T08:32:14;1.94;88.30
67868;SHT31;54672;46.096;14.470;2023-03-01T08:34:39;1.60;88.23
67868;SHT31;54672;46.096;14.470;2023-03-01T08:37:04;1.68;89.53
67868;SHT31;54672;46.096;14.470;2023-03-01T08:39:30;1.40;89.58
67868;SHT31;54672;46.096;14.470;2023-03-01T08:41:55;1.37;90.19
67868;SHT31;54672;46.096;14.470;2023-03-01T08:44:21;1.64;90.09
67868;SHT31;54672;46.096;14.470;2023-03-01T08:46:47;1.55;89.61
67868;SHT31;54672;46.096;14.470;2023-03-01T08:49:17;1.46;90.33
67868;SHT31;54672;46.096;14.470;2023-03-01T08:51:43;1.46;90.61
67868;SHT31;54672;46.096;14.470;2023-03-01T08:54:18;1.39;90.63
67868;SHT31;54672;46.096;14.470;2023-03-01T08:56:44;1.46;90.78
67868;SHT31;54672;46.096;14.470;2023-03-01T08:59:11;1.43;90.56
67868;SHT31;54672;46.096;14.470;2023-03-01T09:01:37;1.50;90.89
67868;SHT31;54672;46.096;14.470;2023-03-01T09:04:03;1.47;91.21
67868;SHT31;54672;46.096;14.470;2023-03-01T09:06:35;1.44;90.97
67868;SHT31;54672;46.096;14.470;2023-03-01T09:09:03;1.61;90.36
67868;SHT31;54672;46.096;14.470;2023-03-01T09:11:28;1.70;89.63
67868;SHT31;54672;46.096;14.470;2023-03-01T09:13:55;1.70;90.35
67868;SHT31;54672;46.096;14.470;2023-03-01T09:16:22;1.72;90.31
67868;SHT31;54672;46.096;14.470;2023-03-01T09:18:52;1.84;90.15
67868;SHT31;54672;46.096;14.470;2023-03-01T09:21:19;1.84;89.98
67868;SHT31;54672;46.096;14.470;2023-03-01T09:23:47;1.84;89.72
67868;SHT31;54672;46.096;14.470;2023-03-01T09:26:19;1.77;89.15
67868;SHT31;54672;46.096;14.470;2023-03-01T09:28:45;1.67;89.08
67868;SHT31;54672;46.096;14.470;2023-03-01T09:31:12;1.72;89.00
67868;SHT31;54672;46.096;14.470;2023-03-01T09:33:40;1.75;89.43
67868;SHT31;54672;46.096;14.470;2023-03-01T09:36:10;1.84;89.07
67868;SHT31;54672;46.096;14.470;2023-03-01T09:38:36;1.81;89.05
67868;SHT31;54672;46.096;14.470;2023-03-01T09:41:02;1.89;88.90
67868;SHT31;54672;46.096;14.470;2023-03-01T09:43:47;1.92;88.63
67868;SHT31;54672;46.096;14.470;2023-03-01T09:46:14;1.86;88.47
67868;SHT31;54672;46.096;14.470;2023-03-01T09:48:50;1.89;89.09
67868;SHT31;54672;46.096;14.470;2023-03-01T09:51:34;2.06;88.29
67868;SHT31;54672;46.096;14.470;2023-03-01T09:54:04;2.22;88.09
67868;SHT31;54672;46.096;14.470;2023-03-01T09:57:04;2.39;87.10
67868;SHT31;54672;46.096;14.470;2023-03-01T09:59:39;2.73;86.56
67868;SHT31;54672;46.096;14.470;2023-03-01T10:05:14;2.61;86.92
67868;SHT31;54672;46.096;14.470;2023-03-01T10:10:33;2.25;86.16
67868;SHT31;54672;46.096;14.470;2023-03-01T10:13:07;2.54;86.29
67868;SHT31;54672;46.096;14.470;2023-03-01T10:15:41;2.80;85.49
67868;SHT31;54672;46.096;14.470;2023-03-01T10:18:17;2.94;85.19
67868;SHT31;54672;46.096;14.470;2023-03-01T10:20:58;3.16;84.51
67868;SHT31;54672;46.096;14.470;2023-03-01T10:23:25;3.26;83.39
67868;SHT31;54672;46.096;14.470;2023-03-01T10:26:14;3.36;83.51
67868;SHT31;54672;46.096;14.470;2023-03-01T10:28:56;3.46;83.35
67868;SHT31;54672;46.096;14.470;2023-03-01T10:34:16;3.29;82.10
67868;SHT31;54672;46.096;14.470;2023-03-01T10:36:43;2.83;83.03
67868;SHT31;54672;46.096;14.470;2023-03-01T10:39:19;2.73;84.00
67868;SHT31;54672;46.096;14.470;2023-03-01T10:42:05;2.47;84.39
67868;SHT31;54672;46.096;14.470;2023-03-01T10:44:41;2.43;84.73
67868;SHT31;54672;46.096;14.470;2023-03-01T10:47:15;2.71;84.85
67868;SHT31;54672;46.096;14.470;2023-03-01T10:52:31;2.63;84.02
67868;SHT31;54672;46.096;14.470;2023-03-01T10:55:24;2.79;83.03
67868;SHT31;54672;46.096;14.470;2023-03-01T10:58:07;2.68;82.85
67868;SHT31;54672;46.096;14.470;2023-03-01T11:00:32;2.83;83.07
67868;SHT31;54672;46.096;14.470;2023-03-01T11:05:25;3.09;82.70
67868;SHT31;54672;46.096;14.470;2023-03-01T11:07:56;3.01;81.71
67868;SHT31;54672;46.096;14.470;2023-03-01T11:10:35;2.94;82.82
67868;SHT31;54672;46.096;14.470;2023-03-01T11:13:18;2.97;83.51
67868;SHT31;54672;46.096;14.470;2023-03-01T11:15:59;3.12;81.96
67868;SHT31;54672;46.096;14.470;2023-03-01T11:18:25;2.98;83.34
67868;SHT31;54672;46.096;14.470;2023-03-01T11:20:53;3.12;82.54
67868;SHT31;54672;46.096;14.470;2023-03-01T11:23:21;3.00;83.18
67868;SHT31;54672;46.096;14.470;2023-03-01T11:26:08;3.02;84.15
67868;SHT31;54672;46.096;14.470;2023-03-01T11:28:37;3.22;83.29
67868;SHT31;54672;46.096;14.470;2023-03-01T11:31:06;3.01;83.13
67868;SHT31;54672;46.096;14.470;2023-03-01T11:36:41;3.21;83.53
67868;SHT31;54672;46.096;14.470;2023-03-01T11:39:25;3.46;83.11
67868;SHT31;54672;46.096;14.470;2023-03-01T11:42:02;3.58;82.55
67868;SHT31;54672;46.096;14.470;2023-03-01T11:44:32;3.69;81.97
67868;SHT31;54672;46.096;14.470;2023-03-01T11:52:38;3.91;81.75
67868;SHT31;54672;46.096;14.470;2023-03-01T11:55:26;3.94;80.51
67868;SHT31;54672;46.096;14.470;2023-03-01T11:58:13;3.60;82.70
67868;SHT31;54672;46.096;14.470;2023-03-01T12:03:29;3.36;82.96
67868;SHT31;54672;46.096;14.470;2023-03-01T12:11:23;3.83;81.68
67868;SHT31;54672;46.096;14.470;2023-03-01T12:25:43;3.80;81.20
67868;SHT31;54672;46.096;14.470;2023-03-01T12:28:42;3.55;82.23
67868;SHT31;54672;46.096;14.470;2023-03-01T12:37:36;4.01;79.94
67868;SHT31;54672;46.096;14.470;2023-03-01T12:40:32;3.98;80.43
67868;SHT31;54672;46.096;14.470;2023-03-01T12:46:25;3.56;81.49
67868;SHT31;54672;46.096;14.470;2023-03-01T12:49:05;3.64;82.15
67868;SHT31;54672;46.096;14.470;2023-03-01T12:51:34;3.62;81.93
67868;SHT31;54672;46.096;14.470;2023-03-01T12:54:07;3.83;81.35
67868;SHT31;54672;46.096;14.470;2023-03-01T12:56:37;4.01;80.58
67868;SHT31;54672;46.096;14.470;2023-03-01T12:59:26;3.90;80.86
67868;SHT31;54672;46.096;14.470;2023-03-01T13:01:59;4.15;80.87
67868;SHT31;54672;46.096;14.470;2023-03-01T13:04:53;4.17;79.98
67868;SHT31;54672;46.096;14.470;2023-03-01T13:07:34;4.04;80.64
67868;SHT31;54672;46.096;14.470;2023-03-01T13:10:19;4.24;80.02
67868;SHT31;54672;46.096;14.470;2023-03-01T13:12:52;4.10;80.14
67868;SHT31;54672;46.096;14.470;2023-03-01T13:17:47;3.59;82.75
67868;SHT31;54672;46.096;14.470;2023-03-01T13:20:18;3.42;82.19
67868;SHT31;54672;46.096;14.470;2023-03-01T13:22:45;3.46;82.92
67868;SHT31;54672;46.096;14.470;2023-03-01T13:25:17;3.26;83.20
67868;SHT31;54672;46.096;14.470;2023-03-01T13:27:44;3.19;83.60
67868;SHT31;54672;46.096;14.470;2023-03-01T13:35:48;3.43;83.95
67868;SHT31;54672;46.096;14.470;2023-03-01T13:38:59;3.63;83.39
67868;SHT31;54672;46.096;14.470;2023-03-01T13:44:33;3.74;82.47
67868;SHT31;54672;46.096;14.470;2023-03-01T13:47:16;3.45;83.15
67868;SHT31;54672;46.096;14.470;2023-03-01T13:54:58;3.60;83.14
67868;SHT31;54672;46.096;14.470;2023-03-01T13:57:28;3.72;82.43
67868;SHT31;54672;46.096;14.470;2023-03-01T13:59:55;3.66;82.59
67868;SHT31;54672;46.096;14.470;2023-03-01T14:02:21;3.80;82.62
67868;SHT31;54672;46.096;14.470;2023-03-01T14:04:56;3.89;82.16
67868;SHT31;54672;46.096;14.470;2023-03-01T14:07:24;3.98;82.17
67868;SHT31;54672;46.096;14.470;2023-03-01T14:09:54;4.11;81.44
67868;SHT31;54672;46.096;14.470;2023-03-01T14:15:01;4.13;81.79
67868;SHT31;54672;46.096;14.470;2023-03-01T14:17:44;3.94;81.64
67868;SHT31;54672;46.096;14.470;2023-03-01T14:20:33;3.95;82.11
67868;SHT31;54672;46.096;14.470;2023-03-01T14:23:11;3.91;82.28
67868;SHT31;54672;46.096;14.470;2023-03-01T14:25:37;3.87;82.35
67868;SHT31;54672;46.096;14.470;2023-03-01T14:28:15;3.87;82.51
67868;SHT31;54672;46.096;14.470;2023-03-01T14:30:48;3.82;82.10
67868;SHT31;54672;46.096;14.470;2023-03-01T14:33:37;3.80;82.55
67868;SHT31;54672;46.096;14.470;2023-03-01T14:36:09;3.76;83.19
67868;SHT31;54672;46.096;14.470;2023-03-01T14:43:46;3.83;83.04
67868;SHT31;54672;46.096;14.470;2023-03-01T14:46:26;3.89;82.89
67868;SHT31;54672;46.096;14.470;2023-03-01T14:49:03;3.94;82.53
67868;SHT31;54672;46.096;14.470;2023-03-01T14:51:30;3.90;82.85
67868;SHT31;54672;46.096;14.470;2023-03-01T14:53:56;3.93;82.98
67868;SHT31;54672;46.096;14.470;2023-03-01T14:56:22;3.97;82.69
67868;SHT31;54672;46.096;14.470;2023-03-01T14:58:51;3.98;82.90
67868;SHT31;54672;46.096;14.470;2023-03-01T15:01:17;4.01;82.70
67868;SHT31;54672;46.096;14.470;2023-03-01T15:03:46;4.04;82.87
67868;SHT31;54672;46.096;14.470;2023-03-01T15:06:15;4.10;82.39
67868;SHT31;54672;46.096;14.470;2023-03-01T15:08:45;4.11;82.35
67868;SHT31;54672;46.096;14.470;2023-03-01T15:11:23;4.13;82.70
67868;SHT31;54672;46.096;14.470;2023-03-01T15:13:52;3.83;83.96
67868;SHT31;54672;46.096;14.470;2023-03-01T15:16:24;3.90;84.07
67868;SHT31;54672;46.096;14.470;2023-03-01T15:18:58;3.95;83.91
67868;SHT31;54672;46.096;14.470;2023-03-01T15:21:27;3.98;83.69
67868;SHT31;54672;46.096;14.470;2023-03-01T15:26:49;3.86;84.68
67868;SHT31;54672;46.096;14.470;2023-03-01T15:29:20;3.73;85.08
67868;SHT31;54672;46.096;14.470;2023-03-01T15:32:20;3.84;84.87
67868;SHT31;54672;46.096;14.470;2023-03-01T15:34:48;3.91;84.77
67868;SHT31;54672;46.096;14.470;2023-03-01T15:40:00;4.00;85.09
67868;SHT31;54672;46.096;14.470;2023-03-01T15:45:10;4.04;85.32
67868;SHT31;54672;46.096;14.470;2023-03-01T15:47:39;4.10;84.34
67868;SHT31;54672;46.096;14.470;2023-03-01T15:50:11;4.08;83.75
67868;SHT31;54672;46.096;14.470;2023-03-01T15:52:41;4.14;84.58
67868;SHT31;54672;46.096;14.470;2023-03-01T15:55:17;4.15;84.86
67868;SHT31;54672;46.096;14.470;2023-03-01T15:57:43;4.10;84.60
67868;SHT31;54672;46.096;14.470;2023-03-01T16:00:10;4.10;84.09
67868;SHT31;54672;46.096;14.470;2023-03-01T16:02:40;4.00;84.15
67868;SHT31;54672;46.096;14.470;2023-03-01T16:05:28;3.91;84.87
67868;SHT31;54672;46.096;14.470;2023-03-01T16:07:52;4.00;84.92
67868;SHT31;54672;46.096;14.470;2023-03-01T16:10:18;4.05;84.28
67868;SHT31;54672;46.096;14.470;2023-03-01T16:12:44;3.95;84.91
67868;SHT31;54672;46.096;14.470;2023-03-01T16:15:20;3.94;85.02
67868;SHT31;54672;46.096;14.470;2023-03-01T16:17:47;3.90;85.68
67868;SHT31;54672;46.096;14.470;2023-03-01T16:20:13;3.80;86.21
67868;SHT31;54672;46.096;14.470;2023-03-01T16:22:41;3.72;86.79
67868;SHT31;54672;46.096;14.470;2023-03-01T16:25:09;3.64;87.26
67868;SHT31;54672;46.096;14.470;2023-03-01T16:27:34;3.52;88.35
67868;SHT31;54672;46.096;14.470;2023-03-01T16:30:00;3.42;89.75
67868;SHT31;54672;46.096;14.470;2023-03-01T16:32:25;3.38;91.46
67868;SHT31;54672;46.096;14.470;2023-03-01T16:34:50;3.31;91.72
67868;SHT31;54672;46.096;14.470;2023-03-01T16:37:16;3.28;92.35
67868;SHT31;54672;46.096;14.470;2023-03-01T16:39:42;3.19;92.96
67868;SHT31;54672;46.096;14.470;2023-03-01T16:42:08;3.18;93.29
67868;SHT31;54672;46.096;14.470;2023-03-01T16:44:33;3.14;93.50
67868;SHT31;54672;46.096;14.470;2023-03-01T16:46:58;3.08;93.69
67868;SHT31;54672;46.096;14.470;2023-03-01T16:49:24;3.05;94.06
67868;SHT31;54672;46.096;14.470;2023-03-01T16:51:49;3.04;94.27
67868;SHT31;54672;46.096;14.470;2023-03-01T16:54:15;3.04;93.95
67868;SHT31;54672;46.096;14.470;2023-03-01T16:56:40;3.04;93.83
67868;SHT31;54672;46.096;14.470;2023-03-01T16:59:06;3.01;93.87
67868;SHT31;54672;46.096;14.470;2023-03-01T17:01:32;2.97;94.43
67868;SHT31;54672;46.096;14.470;2023-03-01T17:04:06;2.97;94.51
67868;SHT31;54672;46.096;14.470;2023-03-01T17:06:32;2.97;94.70
67868;SHT31;54672;46.096;14.470;2023-03-01T17:08:58;2.98;94.67
67868;SHT31;54672;46.096;14.470;2023-03-01T17:11:24;2.97;94.43
67868;SHT31;54672;46.096;14.470;2023-03-01T17:13:49;2.92;94.55
67868;SHT31;54672;46.096;14.470;2023-03-01T17:16:17;2.87;94.51
67868;SHT31;54672;46.096;14.470;2023-03-01T17:18:42;2.83;95.16